sensor_id;sensor_type;location;lat;lon;timestamp;pressure;altitude;pressure_sealevel;temperature;humidity
51926;BME280;37952;51.938;15.480;2022-11-02T00:00:25;100105.80;;;13.36;73.57
51926;BME280;37952;51.938;15.480;2022-11-02T00:03:49;100104.23;;;13.31;73.70
51926;BME280;37952;51.938;15.480;2022-11-02T00:06:52;100108.59;;;13.23;73.84
51926;BME280;37952;51.938;15.480;2022-11-02T00:09:54;100110.38;;;13.18;73.95
51926;BME280;37952;51.938;15.480;2022-11-02T00:12:57;100112.69;;;13.23;73.80
51926;BME280;37952;51.938;15.480;2022-11-02T00:16:02;100114.42;;;13.24;73.75
51926;BME280;37952;51.938;15.480;2022-11-02T00:19:07;100115.92;;;13.31;73.61
51926;BME280;37952;51.938;15.480;2022-11-02T00:22:10;100120.34;;;13.28;73.53
51926;BME280;37952;51.938;15.480;2022-11-02T00:25:16;100121.69;;;13.18;73.60
51926;BME280;37952;51.938;15.480;2022-11-02T00:28:22;100126.52;;;13.17;73.61
51926;BME280;37952;51.938;15.480;2022-11-02T00:31:25;100128.02;;;13.11;73.61
51926;BME280;37952;51.938;15.480;2022-11-02T00:34:28;100129.71;;;13.18;73.47
51926;BME280;37952;51.938;15.480;2022-11-02T00:37:31;100132.17;;;13.12;73.26
51926;BME280;37952;51.938;15.480;2022-11-02T00:40:34;100130.14;;;13.03;73.37
51926;BME280;37952;51.938;15.480;2022-11-02T00:43:37;100128.67;;;13.06;73.32
51926;BME280;37952;51.938;15.480;2022-11-02T00:46:40;100126.09;;;13.08;73.27
51926;BME280;37952;51.938;15.480;2022-11-02T00:49:43;100127.02;;;13.10;72.87
51926;BME280;37952;51.938;15.480;2022-11-02T00:52:46;100131.77;;;12.96;72.79
51926;BME280;37952;51.938;15.480;2022-11-02T00:55:48;100130.95;;;12.87;72.87
51926;BME280;37952;51.938;15.480;2022-11-02T00:58:51;100134.07;;;12.80;72.89
51926;BME280;37952;51.938;15.480;2022-11-02T01:01:54;100130.60;;;12.73;72.83
51926;BME280;37952;51.938;15.480;2022-11-02T01:04:57;100132.77;;;12.78;72.86
51926;BME280;37952;51.938;15.480;2022-11-02T01:08:00;100132.86;;;12.85;72.83
51926;BME280;37952;51.938;15.480;2022-11-02T01:11:16;100136.36;;;12.85;72.28
51926;BME280;37952;51.938;15.480;2022-11-02T01:14:20;100141.96;;;12.75;71.94
51926;BME280;37952;51.938;15.480;2022-11-02T01:17:23;100144.35;;;12.65;71.93
51926;BME280;37952;51.938;15.480;2022-11-02T01:20:26;100141.59;;;12.50;71.65
51926;BME280;37952;51.938;15.480;2022-11-02T01:23:33;100146.60;;;12.49;71.68
51926;BME280;37952;51.938;15.480;2022-11-02T01:26:36;100139.77;;;12.42;71.37
51926;BME280;37952;51.938;15.480;2022-11-02T01:29:39;100135.56;;;12.36;71.51
51926;BME280;37952;51.938;15.480;2022-11-02T01:33:08;100140.09;;;12.37;71.40
51926;BME280;37952;51.938;15.480;2022-11-02T01:36:13;100135.73;;;12.41;71.49
51926;BME280;37952;51.938;15.480;2022-11-02T01:39:16;100135.45;;;12.49;71.41
51926;BME280;37952;51.938;15.480;2022-11-02T01:42:22;100135.14;;;12.57;71.19
51926;BME280;37952;51.938;15.480;2022-11-02T01:45:26;100129.52;;;12.51;70.92
51926;BME280;37952;51.938;15.480;2022-11-02T01:48:42;100123.57;;;12.44;70.96
51926;BME280;37952;51.938;15.480;2022-11-02T01:52:04;100121.23;;;12.50;71.11
51926;BME280;37952;51.938;15.480;2022-11-02T01:58:14;100121.02;;;12.42;70.87
51926;BME280;37952;51.938;15.480;2022-11-02T02:01:16;100120.85;;;12.45;71.27
51926;BME280;37952;51.938;15.480;2022-11-02T02:04:20;100119.63;;;12.53;71.22
51926;BME280;37952;51.938;15.480;2022-11-02T02:07:25;100117.52;;;12.56;71.17
51926;BME280;37952;51.938;15.480;2022-11-02T02:10:29;100118.96;;;12.56;71.26
51926;BME280;37952;51.938;15.480;2022-11-02T02:13:32;100125.58;;;12.63;71.41
51926;BME280;37952;51.938;15.480;2022-11-02T02:26:59;100121.30;;;12.38;71.67
51926;BME280;37952;51.938;15.480;2022-11-02T02:30:08;100124.02;;;12.28;71.90
51926;BME280;37952;51.938;15.480;2022-11-02T02:33:16;100124.14;;;12.26;72.00
51926;BME280;37952;51.938;15.480;2022-11-02T02:36:32;100124.11;;;12.26;71.97
51926;BME280;37952;51.938;15.480;2022-11-02T02:42:45;100122.70;;;12.29;71.91
51926;BME280;37952;51.938;15.480;2022-11-02T02:45:53;100122.37;;;12.26;71.57
51926;BME280;37952;51.938;15.480;2022-11-02T02:48:57;100122.83;;;12.27;71.60
51926;BME280;37952;51.938;15.480;2022-11-02T02:52:01;100121.64;;;12.32;71.33
51926;BME280;37952;51.938;15.480;2022-11-02T02:55:06;100123.56;;;12.24;71.05
51926;BME280;37952;51.938;15.480;2022-11-02T02:58:18;100120.64;;;12.14;71.25
51926;BME280;37952;51.938;15.480;2022-11-02T03:01:22;100121.50;;;12.08;71.29
51926;BME280;37952;51.938;15.480;2022-11-02T03:04:25;100122.92;;;12.05;71.34
51926;BME280;37952;51.938;15.480;2022-11-02T03:07:30;100122.11;;;12.03;71.22
51926;BME280;37952;51.938;15.480;2022-11-02T03:11:19;100122.48;;;12.06;71.41
51926;BME280;37952;51.938;15.480;2022-11-02T03:21:22;100121.94;;;11.97;70.93
51926;BME280;37952;51.938;15.480;2022-11-02T03:24:35;100121.38;;;11.96;71.10
51926;BME280;37952;51.938;15.480;2022-11-02T03:30:55;100124.72;;;11.89;70.91
51926;BME280;37952;51.938;15.480;2022-11-02T03:34:16;100116.73;;;11.90;70.82
51926;BME280;37952;51.938;15.480;2022-11-02T03:40:37;100128.40;;;11.81;70.36
51926;BME280;37952;51.938;15.480;2022-11-02T03:43:43;100132.55;;;11.82;70.34
51926;BME280;37952;51.938;15.480;2022-11-02T03:46:51;100129.38;;;11.70;70.02
51926;BME280;37952;51.938;15.480;2022-11-02T03:49:59;100126.19;;;11.74;70.32
51926;BME280;37952;51.938;15.480;2022-11-02T03:53:11;100125.65;;;11.77;70.40
51926;BME280;37952;51.938;15.480;2022-11-02T03:56:22;100126.59;;;11.82;70.46
51926;BME280;37952;51.938;15.480;2022-11-02T03:59:29;100132.92;;;11.76;70.31
51926;BME280;37952;51.938;15.480;2022-11-02T04:02:35;100130.17;;;11.72;70.59
51926;BME280;37952;51.938;15.480;2022-11-02T04:05:39;100128.91;;;11.69;70.90
51926;BME280;37952;51.938;15.480;2022-11-02T04:08:44;100133.88;;;11.54;71.40
51926;BME280;37952;51.938;15.480;2022-11-02T04:11:47;100129.85;;;11.44;71.81
51926;BME280;37952;51.938;15.480;2022-11-02T04:15:09;100129.91;;;11.43;72.08
51926;BME280;37952;51.938;15.480;2022-11-02T04:18:11;100133.13;;;11.27;72.80
51926;BME280;37952;51.938;15.480;2022-11-02T04:21:33;100133.88;;;11.16;73.15
51926;BME280;37952;51.938;15.480;2022-11-02T04:24:36;100132.05;;;11.15;73.33
51926;BME280;37952;51.938;15.480;2022-11-02T04:28:06;100132.83;;;11.10;73.72
51926;BME280;37952;51.938;15.480;2022-11-02T04:31:09;100128.00;;;10.93;74.40
51926;BME280;37952;51.938;15.480;2022-11-02T04:34:14;100130.27;;;10.96;74.22
51926;BME280;37952;51.938;15.480;2022-11-02T04:37:17;100132.06;;;10.89;74.52
51926;BME280;37952;51.938;15.480;2022-11-02T04:40:38;100139.25;;;10.87;74.61
51926;BME280;37952;51.938;15.480;2022-11-02T04:43:41;100139.42;;;10.87;74.65
51926;BME280;37952;51.938;15.480;2022-11-02T04:46:46;100140.11;;;10.84;74.59
51926;BME280;37952;51.938;15.480;2022-11-02T04:49:49;100136.85;;;10.82;74.66
51926;BME280;37952;51.938;15.480;2022-11-02T04:52:59;100126.44;;;10.83;74.57
51926;BME280;37952;51.938;15.480;2022-11-02T04:56:03;100136.48;;;10.63;75.30
51926;BME280;37952;51.938;15.480;2022-11-02T04:59:06;100130.90;;;10.62;75.28
51926;BME280;37952;51.938;15.480;2022-11-02T05:02:08;100138.44;;;10.60;75.30
51926;BME280;37952;51.938;15.480;2022-11-02T05:05:13;100138.40;;;10.60;75.30
51926;BME280;37952;51.938;15.480;2022-11-02T05:08:16;100139.15;;;10.60;75.37
51926;BME280;37952;51.938;15.480;2022-11-02T05:11:19;100138.91;;;10.71;74.94
51926;BME280;37952;51.938;15.480;2022-11-02T05:14:23;100139.83;;;10.70;74.85
51926;BME280;37952;51.938;15.480;2022-11-02T05:17:26;100136.02;;;10.78;74.63
51926;BME280;37952;51.938;15.480;2022-11-02T05:20:29;100135.08;;;10.76;74.74
51926;BME280;37952;51.938;15.480;2022-11-02T05:23:32;100139.02;;;10.68;74.82
51926;BME280;37952;51.938;15.480;2022-11-02T05:26:36;100141.77;;;10.63;74.73
51926;BME280;37952;51.938;15.480;2022-11-02T05:29:38;100141.08;;;10.60;74.86
51926;BME280;37952;51.938;15.480;2022-11-02T05:32:41;100143.95;;;10.59;74.77
51926;BME280;37952;51.938;15.480;2022-11-02T05:35:44;100147.02;;;10.54;74.96
51926;BME280;37952;51.938;15.480;2022-11-02T05:38:51;100150.88;;;10.41;75.27
51926;BME280;37952;51.938;15.480;2022-11-02T05:41:54;100143.17;;;10.36;75.47
51926;BME280;37952;51.938;15.480;2022-11-02T05:44:57;100149.05;;;10.42;75.14
51926;BME280;37952;51.938;15.480;2022-11-02T05:48:01;100145.35;;;10.42;75.17
51926;BME280;37952;51.938;15.480;2022-11-02T05:51:05;100147.71;;;10.40;75.13
51926;BME280;37952;51.938;15.480;2022-11-02T05:54:08;100154.20;;;10.34;75.12
51926;BME280;37952;51.938;15.480;2022-11-02T05:57:11;100150.27;;;10.35;74.96
51926;BME280;37952;51.938;15.480;2022-11-02T06:00:14;100145.65;;;10.43;74.86
51926;BME280;37952;51.938;15.480;2022-11-02T06:03:17;100150.44;;;10.46;74.59
51926;BME280;37952;51.938;15.480;2022-11-02T06:06:20;100155.68;;;10.47;74.32
51926;BME280;37952;51.938;15.480;2022-11-02T06:09:23;100160.20;;;10.28;74.63
51926;BME280;37952;51.938;15.480;2022-11-02T06:12:26;100162.99;;;10.21;74.62
51926;BME280;37952;51.938;15.480;2022-11-02T06:15:31;100162.14;;;10.28;74.58
51926;BME280;37952;51.938;15.480;2022-11-02T06:18:35;100160.07;;;10.30;74.18
51926;BME280;37952;51.938;15.480;2022-11-02T06:21:38;100157.49;;;10.25;74.07
51926;BME280;37952;51.938;15.480;2022-11-02T06:24:47;100155.05;;;10.25;73.93
51926;BME280;37952;51.938;15.480;2022-11-02T06:27:51;100159.91;;;10.33;73.65
51926;BME280;37952;51.938;15.480;2022-11-02T06:30:55;100163.20;;;10.40;73.13
51926;BME280;37952;51.938;15.480;2022-11-02T06:33:58;100158.78;;;10.38;72.86
51926;BME280;37952;51.938;15.480;2022-11-02T06:37:00;100166.25;;;10.40;72.58
51926;BME280;37952;51.938;15.480;2022-11-02T06:40:03;100172.02;;;10.34;72.26
51926;BME280;37952;51.938;15.480;2022-11-02T06:43:07;100170.92;;;10.32;72.47
51926;BME280;37952;51.938;15.480;2022-11-02T06:46:18;100175.52;;;10.48;72.31
51926;BME280;37952;51.938;15.480;2022-11-02T06:49:22;100170.58;;;10.52;71.80
51926;BME280;37952;51.938;15.480;2022-11-02T06:52:26;100174.84;;;10.55;71.83
51926;BME280;37952;51.938;15.480;2022-11-02T06:55:29;100172.84;;;10.62;71.91
51926;BME280;37952;51.938;15.480;2022-11-02T06:58:31;100178.94;;;10.64;71.63
51926;BME280;37952;51.938;15.480;2022-11-02T07:01:34;100180.06;;;10.63;71.50
51926;BME280;37952;51.938;15.480;2022-11-02T07:04:37;100172.88;;;10.68;71.06
51926;BME280;37952;51.938;15.480;2022-11-02T07:07:40;100180.28;;;10.65;71.02
51926;BME280;37952;51.938;15.480;2022-11-02T07:10:43;100180.88;;;10.61;71.09
51926;BME280;37952;51.938;15.480;2022-11-02T07:13:47;100189.34;;;10.64;71.20
51926;BME280;37952;51.938;15.480;2022-11-02T07:16:49;100186.38;;;10.63;71.05
51926;BME280;37952;51.938;15.480;2022-11-02T07:19:52;100192.54;;;10.60;71.03
51926;BME280;37952;51.938;15.480;2022-11-02T07:22:57;100196.78;;;10.60;71.08
51926;BME280;37952;51.938;15.480;2022-11-02T07:26:00;100191.30;;;10.60;71.01
51926;BME280;37952;51.938;15.480;2022-11-02T07:29:03;100194.25;;;10.64;71.01
51926;BME280;37952;51.938;15.480;2022-11-02T07:32:06;100189.88;;;10.63;70.88
51926;BME280;37952;51.938;15.480;2022-11-02T07:35:12;100189.23;;;10.69;70.88
51926;BME280;37952;51.938;15.480;2022-11-02T07:38:15;100186.02;;;10.73;70.64
51926;BME280;37952;51.938;15.480;2022-11-02T07:41:18;100184.59;;;10.67;70.59
51926;BME280;37952;51.938;15.480;2022-11-02T07:44:22;100189.61;;;10.69;70.56
51926;BME280;37952;51.938;15.480;2022-11-02T07:47:25;100188.66;;;10.67;70.51
51926;BME280;37952;51.938;15.480;2022-11-02T07:50:29;100184.68;;;10.65;70.53
51926;BME280;37952;51.938;15.480;2022-11-02T07:53:33;100187.79;;;10.70;70.41
51926;BME280;37952;51.938;15.480;2022-11-02T07:56:36;100187.47;;;10.73;70.45
51926;BME280;37952;51.938;15.480;2022-11-02T07:59:39;100186.55;;;10.73;70.44
51926;BME280;37952;51.938;15.480;2022-11-02T08:02:42;100184.36;;;10.78;70.24
51926;BME280;37952;51.938;15.480;2022-11-02T08:05:46;100185.27;;;10.80;70.29
51926;BME280;37952;51.938;15.480;2022-11-02T08:08:49;100186.74;;;10.89;70.33
51926;BME280;37952;51.938;15.480;2022-11-02T08:12:12;100183.44;;;10.81;70.23
51926;BME280;37952;51.938;15.480;2022-11-02T08:15:28;100188.62;;;10.87;70.24
51926;BME280;37952;51.938;15.480;2022-11-02T08:18:31;100186.38;;;10.99;70.15
51926;BME280;37952;51.938;15.480;2022-11-02T08:21:35;100184.13;;;11.05;70.01
51926;BME280;37952;51.938;15.480;2022-11-02T08:24:38;100194.16;;;11.02;69.98
51926;BME280;37952;51.938;15.480;2022-11-02T08:27:41;100192.22;;;11.08;70.10
51926;BME280;37952;51.938;15.480;2022-11-02T08:30:44;100191.31;;;11.18;70.05
51926;BME280;37952;51.938;15.480;2022-11-02T08:33:47;100188.98;;;11.22;69.82
51926;BME280;37952;51.938;15.480;2022-11-02T08:36:50;100184.20;;;11.26;69.75
51926;BME280;37952;51.938;15.480;2022-11-02T08:39:54;100181.73;;;11.32;69.71
51926;BME280;37952;51.938;15.480;2022-11-02T08:43:05;100181.03;;;11.41;69.49
51926;BME280;37952;51.938;15.480;2022-11-02T08:46:09;100179.88;;;11.43;69.46
51926;BME280;37952;51.938;15.480;2022-11-02T08:49:18;100172.27;;;11.49;69.39
51926;BME280;37952;51.938;15.480;2022-11-02T08:52:21;100170.13;;;11.53;69.40
51926;BME280;37952;51.938;15.480;2022-11-02T08:55:24;100167.14;;;11.56;69.13
51926;BME280;37952;51.938;15.480;2022-11-02T08:58:27;100161.65;;;11.56;69.00
51926;BME280;37952;51.938;15.480;2022-11-02T09:01:30;100166.55;;;11.54;68.92
51926;BME280;37952;51.938;15.480;2022-11-02T09:04:34;100165.80;;;11.60;68.93
51926;BME280;37952;51.938;15.480;2022-11-02T09:07:37;100169.64;;;11.64;68.81
51926;BME280;37952;51.938;15.480;2022-11-02T09:10:40;100178.13;;;11.67;68.79
51926;BME280;37952;51.938;15.480;2022-11-02T09:13:43;100174.45;;;11.69;68.57
51926;BME280;37952;51.938;15.480;2022-11-02T09:16:46;100171.43;;;11.73;68.56
51926;BME280;37952;51.938;15.480;2022-11-02T09:19:49;100177.14;;;11.78;68.55
51926;BME280;37952;51.938;15.480;2022-11-02T09:22:52;100186.05;;;11.80;68.37
51926;BME280;37952;51.938;15.480;2022-11-02T09:25:56;100176.58;;;11.90;68.57
51926;BME280;37952;51.938;15.480;2022-11-02T09:28:59;100177.35;;;11.96;68.02
51926;BME280;37952;51.938;15.480;2022-11-02T09:32:02;100169.88;;;12.02;67.79
51926;BME280;37952;51.938;15.480;2022-11-02T09:35:09;100182.76;;;12.15;67.76
51926;BME280;37952;51.938;15.480;2022-11-02T09:38:13;100181.10;;;12.31;67.67
51926;BME280;37952;51.938;15.480;2022-11-02T09:45:20;100177.96;;;12.39;67.25
51926;BME280;37952;51.938;15.480;2022-11-02T09:48:46;100181.77;;;12.40;67.32
51926;BME280;37952;51.938;15.480;2022-11-02T09:51:52;100179.54;;;12.45;67.32
51926;BME280;37952;51.938;15.480;2022-11-02T09:54:58;100177.73;;;12.51;67.35
51926;BME280;37952;51.938;15.480;2022-11-02T09:58:06;100174.27;;;12.53;67.15
51926;BME280;37952;51.938;15.480;2022-11-02T10:01:32;100170.99;;;12.60;67.36
51926;BME280;37952;51.938;15.480;2022-11-02T10:11:42;100167.91;;;12.73;66.31
51926;BME280;37952;51.938;15.480;2022-11-02T10:14:57;100161.04;;;12.78;66.80
51926;BME280;37952;51.938;15.480;2022-11-02T10:18:01;100172.73;;;12.86;66.80
51926;BME280;37952;51.938;15.480;2022-11-02T10:21:09;100171.60;;;12.90;66.24
51926;BME280;37952;51.938;15.480;2022-11-02T10:24:26;100173.47;;;12.97;66.29
51926;BME280;37952;51.938;15.480;2022-11-02T10:27:43;100176.17;;;13.02;65.74
51926;BME280;37952;51.938;15.480;2022-11-02T10:30:48;100190.89;;;13.01;64.95
51926;BME280;37952;51.938;15.480;2022-11-02T10:33:52;100174.77;;;13.02;65.25
51926;BME280;37952;51.938;15.480;2022-11-02T10:40:25;100174.68;;;13.03;64.66
51926;BME280;37952;51.938;15.480;2022-11-02T10:54:15;100179.58;;;13.24;64.62
51926;BME280;37952;51.938;15.480;2022-11-02T10:57:29;100175.58;;;13.28;64.92
51926;BME280;37952;51.938;15.480;2022-11-02T11:00:35;100186.23;;;13.33;64.28
51926;BME280;37952;51.938;15.480;2022-11-02T11:03:55;100175.77;;;13.33;64.07
51926;BME280;37952;51.938;15.480;2022-11-02T11:07:21;100184.23;;;13.36;64.47
51926;BME280;37952;51.938;15.480;2022-11-02T11:10:34;100179.64;;;13.42;64.28
51926;BME280;37952;51.938;15.480;2022-11-02T11:13:40;100177.25;;;13.46;64.25
51926;BME280;37952;51.938;15.480;2022-11-02T11:17:14;100176.36;;;13.49;63.75
51926;BME280;37952;51.938;15.480;2022-11-02T11:20:39;100175.73;;;13.56;64.09
51926;BME280;37952;51.938;15.480;2022-11-02T11:23:43;100174.60;;;13.62;63.96
51926;BME280;37952;51.938;15.480;2022-11-02T11:26:58;100172.54;;;13.70;64.13
51926;BME280;37952;51.938;15.480;2022-11-02T11:30:02;100165.98;;;13.78;64.19
51926;BME280;37952;51.938;15.480;2022-11-02T11:33:05;100176.81;;;13.85;63.59
51926;BME280;37952;51.938;15.480;2022-11-02T11:36:09;100182.92;;;13.92;63.34
51926;BME280;37952;51.938;15.480;2022-11-02T11:39:28;100179.88;;;13.95;63.40
51926;BME280;37952;51.938;15.480;2022-11-02T11:42:34;100182.73;;;13.89;62.48
51926;BME280;37952;51.938;15.480;2022-11-02T11:45:38;100178.27;;;13.93;63.14
51926;BME280;37952;51.938;15.480;2022-11-02T11:48:49;100179.38;;;13.95;63.00
51926;BME280;37952;51.938;15.480;2022-11-02T11:51:53;100176.92;;;13.94;62.94
51926;BME280;37952;51.938;15.480;2022-11-02T11:55:19;100171.82;;;13.94;62.86
51926;BME280;37952;51.938;15.480;2022-11-02T12:01:37;100175.94;;;13.93;62.84
51926;BME280;37952;51.938;15.480;2022-11-02T12:04:41;100175.16;;;13.91;62.95
51926;BME280;37952;51.938;15.480;2022-11-02T12:14:51;100164.63;;;14.16;62.02
51926;BME280;37952;51.938;15.480;2022-11-02T12:28:36;100176.98;;;14.27;60.95
51926;BME280;37952;51.938;15.480;2022-11-02T12:31:47;100170.69;;;14.31;61.53
51926;BME280;37952;51.938;15.480;2022-11-02T12:35:05;100164.12;;;14.44;61.68
51926;BME280;37952;51.938;15.480;2022-11-02T12:45:25;100179.14;;;14.70;60.79
51926;BME280;37952;51.938;15.480;2022-11-02T12:52:33;100176.29;;;14.53;60.53
51926;BME280;37952;51.938;15.480;2022-11-02T12:55:46;100179.94;;;14.38;60.48
51926;BME280;37952;51.938;15.480;2022-11-02T12:58:50;100180.54;;;14.24;60.53
51926;BME280;37952;51.938;15.480;2022-11-02T13:02:07;100176.23;;;14.17;61.12
51926;BME280;37952;51.938;15.480;2022-11-02T13:05:18;100173.83;;;14.14;61.19
51926;BME280;37952;51.938;15.480;2022-11-02T13:08:46;100175.29;;;14.05;60.50
51926;BME280;37952;51.938;15.480;2022-11-02T13:12:20;100177.93;;;13.97;60.55
51926;BME280;37952;51.938;15.480;2022-11-02T13:15:26;100176.89;;;14.08;61.14
51926;BME280;37952;51.938;15.480;2022-11-02T13:18:51;100178.63;;;14.17;61.07
51926;BME280;37952;51.938;15.480;2022-11-02T13:21:56;100180.02;;;14.19;61.41
51926;BME280;37952;51.938;15.480;2022-11-02T13:25:23;100186.23;;;14.22;61.34
51926;BME280;37952;51.938;15.480;2022-11-02T13:32:09;100183.67;;;14.15;60.16
51926;BME280;37952;51.938;15.480;2022-11-02T13:35:32;100190.10;;;14.09;60.07
51926;BME280;37952;51.938;15.480;2022-11-02T13:42:11;100196.20;;;14.00;60.38
51926;BME280;37952;51.938;15.480;2022-11-02T13:48:46;100190.09;;;13.93;60.00
51926;BME280;37952;51.938;15.480;2022-11-02T13:52:15;100187.42;;;13.88;59.77
51926;BME280;37952;51.938;15.480;2022-11-02T13:55:23;100185.02;;;13.87;60.77
51926;BME280;37952;51.938;15.480;2022-11-02T13:58:32;100187.63;;;13.82;60.19
51926;BME280;37952;51.938;15.480;2022-11-02T14:01:39;100190.19;;;13.84;60.83
51926;BME280;37952;51.938;15.480;2022-11-02T14:04:43;100184.73;;;13.86;60.81
51926;BME280;37952;51.938;15.480;2022-11-02T14:07:49;100188.10;;;13.83;60.63
51926;BME280;37952;51.938;15.480;2022-11-02T14:11:00;100185.21;;;13.81;60.67
51926;BME280;37952;51.938;15.480;2022-11-02T14:14:25;100189.14;;;13.86;60.78
51926;BME280;37952;51.938;15.480;2022-11-02T14:17:28;100190.88;;;13.90;60.50
51926;BME280;37952;51.938;15.480;2022-11-02T14:23:37;100193.51;;;13.85;60.49
51926;BME280;37952;51.938;15.480;2022-11-02T14:26:55;100194.63;;;13.81;60.40
51926;BME280;37952;51.938;15.480;2022-11-02T14:29:58;100197.19;;;13.80;60.38
51926;BME280;37952;51.938;15.480;2022-11-02T14:33:16;100198.77;;;13.80;60.78
51926;BME280;37952;51.938;15.480;2022-11-02T14:44:02;100202.15;;;13.61;59.82
51926;BME280;37952;51.938;15.480;2022-11-02T14:47:13;100204.48;;;13.60;60.10
51926;BME280;37952;51.938;15.480;2022-11-02T14:50:19;100211.14;;;13.61;60.40
51926;BME280;37952;51.938;15.480;2022-11-02T14:53:25;100219.46;;;13.56;60.01
51926;BME280;37952;51.938;15.480;2022-11-02T14:57:02;100210.91;;;13.45;60.08
51926;BME280;37952;51.938;15.480;2022-11-02T15:00:18;100212.66;;;13.41;60.18
51926;BME280;37952;51.938;15.480;2022-11-02T15:06:26;100211.88;;;13.42;60.83
51926;BME280;37952;51.938;15.480;2022-11-02T15:09:52;100212.23;;;13.42;60.66
51926;BME280;37952;51.938;15.480;2022-11-02T15:16:21;100208.38;;;13.33;60.42
51926;BME280;37952;51.938;15.480;2022-11-02T15:19:38;100211.27;;;13.29;60.43
51926;BME280;37952;51.938;15.480;2022-11-02T15:22:43;100216.46;;;13.28;60.51
51926;BME280;37952;51.938;15.480;2022-11-02T15:25:50;100219.61;;;13.26;60.59
51926;BME280;37952;51.938;15.480;2022-11-02T15:28:57;100218.35;;;13.23;60.89
51926;BME280;37952;51.938;15.480;2022-11-02T15:32:01;100211.71;;;13.25;60.91
51926;BME280;37952;51.938;15.480;2022-11-02T15:35:18;100208.30;;;13.20;60.96
51926;BME280;37952;51.938;15.480;2022-11-02T15:38:26;100218.69;;;13.18;60.95
51926;BME280;37952;51.938;15.480;2022-11-02T15:52:19;100221.27;;;13.02;61.09
51926;BME280;37952;51.938;15.480;2022-11-02T15:58:45;100238.16;;;13.01;61.45
51926;BME280;37952;51.938;15.480;2022-11-02T16:05:26;100248.21;;;13.05;61.49
51926;BME280;37952;51.938;15.480;2022-11-02T16:08:34;100255.28;;;13.05;61.39
51926;BME280;37952;51.938;15.480;2022-11-02T16:11:39;100260.23;;;13.05;61.34
51926;BME280;37952;51.938;15.480;2022-11-02T16:14:43;100267.00;;;13.01;61.26
51926;BME280;37952;51.938;15.480;2022-11-02T16:17:47;100268.53;;;13.02;61.49
51926;BME280;37952;51.938;15.480;2022-11-02T16:20:56;100268.84;;;13.03;61.31
51926;BME280;37952;51.938;15.480;2022-11-02T16:24:02;100270.18;;;13.04;61.39
51926;BME280;37952;51.938;15.480;2022-11-02T16:27:10;100275.21;;;13.06;61.55
51926;BME280;37952;51.938;15.480;2022-11-02T16:30:19;100279.59;;;12.92;60.99
51926;BME280;37952;51.938;15.480;2022-11-02T16:33:22;100283.52;;;12.89;61.17
51926;BME280;37952;51.938;15.480;2022-11-02T16:36:31;100284.97;;;12.88;61.21
51926;BME280;37952;51.938;15.480;2022-11-02T16:39:37;100282.30;;;12.85;60.84
51926;BME280;37952;51.938;15.480;2022-11-02T16:42:51;100285.11;;;12.86;60.59
51926;BME280;37952;51.938;15.480;2022-11-02T16:45:59;100280.73;;;12.79;60.53
51926;BME280;37952;51.938;15.480;2022-11-02T16:49:11;100285.52;;;12.82;60.60
51926;BME280;37952;51.938;15.480;2022-11-02T16:52:18;100292.30;;;12.81;60.81
51926;BME280;37952;51.938;15.480;2022-11-02T16:55:39;100299.05;;;12.75;60.07
51926;BME280;37952;51.938;15.480;2022-11-02T16:58:46;100310.95;;;12.65;60.05
51926;BME280;37952;51.938;15.480;2022-11-02T17:01:57;100311.21;;;12.67;60.52
51926;BME280;37952;51.938;15.480;2022-11-02T17:05:03;100313.20;;;12.63;60.36
51926;BME280;37952;51.938;15.480;2022-11-02T17:08:32;100317.13;;;12.59;60.38
51926;BME280;37952;51.938;15.480;2022-11-02T17:11:39;100326.66;;;12.54;60.26
51926;BME280;37952;51.938;15.480;2022-11-02T17:14:46;100316.37;;;12.54;60.50
51926;BME280;37952;51.938;15.480;2022-11-02T17:21:22;100319.61;;;12.47;60.15
51926;BME280;37952;51.938;15.480;2022-11-02T17:24:31;100316.02;;;12.42;60.25
51926;BME280;37952;51.938;15.480;2022-11-02T17:27:36;100321.17;;;12.38;60.35
51926;BME280;37952;51.938;15.480;2022-11-02T17:30:45;100327.55;;;12.33;60.36
51926;BME280;37952;51.938;15.480;2022-11-02T17:33:49;100326.85;;;12.32;60.67
51926;BME280;37952;51.938;15.480;2022-11-02T17:36:53;100327.20;;;12.26;60.61
51926;BME280;37952;51.938;15.480;2022-11-02T17:40:00;100331.12;;;12.23;60.59
51926;BME280;37952;51.938;15.480;2022-11-02T17:43:03;100331.45;;;12.23;60.92
51926;BME280;37952;51.938;15.480;2022-11-02T17:46:07;100334.77;;;12.21;60.84
51926;BME280;37952;51.938;15.480;2022-11-02T17:49:14;100336.33;;;12.09;60.85
51926;BME280;37952;51.938;15.480;2022-11-02T17:52:17;100344.77;;;12.03;60.96
51926;BME280;37952;51.938;15.480;2022-11-02T17:55:22;100344.34;;;11.98;61.25
51926;BME280;37952;51.938;15.480;2022-11-02T17:58:26;100347.67;;;11.92;61.29
51926;BME280;37952;51.938;15.480;2022-11-02T18:01:29;100351.70;;;11.93;61.33
51926;BME280;37952;51.938;15.480;2022-11-02T18:04:32;100353.50;;;11.92;61.53
51926;BME280;37952;51.938;15.480;2022-11-02T18:07:35;100356.23;;;11.90;61.49
51926;BME280;37952;51.938;15.480;2022-11-02T18:10:40;100360.23;;;11.85;61.60
51926;BME280;37952;51.938;15.480;2022-11-02T18:13:44;100361.91;;;11.81;61.64
51926;BME280;37952;51.938;15.480;2022-11-02T18:16:47;100361.93;;;11.80;61.84
51926;BME280;37952;51.938;15.480;2022-11-02T18:19:52;100368.20;;;11.82;61.75
51926;BME280;37952;51.938;15.480;2022-11-02T18:22:55;100368.77;;;11.78;61.71